Time;durP1;ratioP1;P1;durP2;ratioP2;P2;SDS_P1;SDS_P2;PMS_P1;PMS_P2;Temp;Humidity;BMP_temperature;BMP_pressure;BME280_temperature;BME280_humidity;BME280_pressure;Samples;Min_cycle;Max_cycle;Signal;HPM_P1;HPM_P2
2021/08/13 00:01:42;;;;;;;10.45;4.75;;;;;;;15.97;67.47;99999.35;129667;1092;113697;-63
2021/08/13 00:04:11;;;;;;;7.93;4.73;;;;;;;15.93;67.56;99997.44;129782;1093;22592;-63
2021/08/13 00:06:41;;;;;;;11.35;4.15;;;;;;;15.88;67.51;100001.02;129640;1093;114637;-63
2021/08/13 00:09:12;;;;;;;8.68;5.25;;;;;;;15.83;67.58;100003.81;129736;1093;22584;-63
2021/08/13 00:11:42;;;;;;;10.68;4.65;;;;;;;15.80;67.88;99999.69;129678;1092;113824;-62
2021/08/13 00:14:30;;;;;;;6.18;4.25;;;;;;;15.77;68.02;99997.50;129767;1093;22578;-63
2021/08/13 00:16:59;;;;;;;6.50;4.43;;;;;;;15.74;67.88;100002.72;129760;1093;23419;-63
2021/08/13 00:19:29;;;;;;;9.20;5.00;;;;;;;15.71;68.02;99992.32;129708;1092;113801;-63
2021/08/13 00:22:01;;;;;;;10.65;4.48;;;;;;;15.72;68.37;99996.72;129772;1093;22599;-63
2021/08/13 00:24:30;;;;;;;17.28;5.28;;;;;;;15.73;68.37;99998.33;129677;1092;114059;-63
2021/08/13 00:26:59;;;;;;;13.23;4.75;;;;;;;15.74;68.17;99998.05;129786;1093;22586;-63
2021/08/13 00:29:28;;;;;;;7.10;4.33;;;;;;;15.75;68.04;99999.70;129791;1093;22570;-63
2021/08/13 00:31:57;;;;;;;7.68;5.10;;;;;;;15.76;68.11;99997.77;129677;1093;113575;-63
2021/08/13 00:34:26;;;;;;;9.93;5.23;;;;;;;15.74;68.25;99997.23;129800;1093;22554;-63
2021/08/13 00:36:55;;;;;;;9.68;4.78;;;;;;;15.70;68.14;100002.48;129651;1092;113790;-63
2021/08/13 00:39:24;;;;;;;8.95;4.83;;;;;;;15.66;68.29;99997.81;129785;1093;22602;-63
2021/08/13 00:41:53;;;;;;;10.58;5.20;;;;;;;15.64;68.40;100009.08;129667;1093;113659;-63
2021/08/13 00:44:22;;;;;;;8.25;4.70;;;;;;;15.63;68.61;100001.94;129764;1092;22568;-63
2021/08/13 00:46:51;;;;;;;14.75;5.43;;;;;;;15.64;68.37;100011.83;129785;1092;22617;-63
2021/08/13 00:49:40;;;;;;;9.38;4.48;;;;;;;15.63;68.33;100012.93;129718;1093;114220;-63
2021/08/13 00:52:23;;;;;;;6.73;4.43;;;;;;;15.62;68.48;100010.45;129752;1093;22581;-63
2021/08/13 00:54:52;;;;;;;9.25;5.05;;;;;;;15.60;68.63;100015.41;129661;1093;114064;-64
2021/08/13 00:57:29;;;;;;;8.25;5.30;;;;;;;15.57;68.61;100018.73;129730;1093;23317;-63
2021/08/13 01:00:30;;;;;;;10.05;5.45;;;;;;;15.54;68.60;100017.33;129700;1093;114002;-63
2021/08/13 01:03:00;;;;;;;10.15;5.80;;;;;;;15.51;68.65;100021.45;129755;1093;22588;-63
2021/08/13 01:05:30;;;;;;;9.33;5.30;;;;;;;15.47;68.85;100028.59;129720;1093;22578;-63
2021/08/13 01:08:00;;;;;;;9.10;4.83;;;;;;;15.43;68.84;100026.70;129676;1092;113611;-63
2021/08/13 01:10:32;;;;;;;8.98;5.13;;;;;;;15.39;69.14;100036.58;129693;1093;23357;-63
2021/08/13 01:13:04;;;;;;;8.28;4.60;;;;;;;15.32;69.48;100027.80;129650;1093;114402;-63
2021/08/13 01:15:33;;;;;;;12.28;4.80;;;;;;;15.32;69.15;100033.28;129857;1093;22542;-63
2021/08/13 01:18:12;;;;;;;8.38;5.20;;;;;;;15.27;69.14;100031.39;129627;1092;114293;-62
2021/08/13 01:21:15;;;;;;;6.38;4.65;;;;;;;15.21;69.31;100036.05;129771;1093;22540;-62
2021/08/13 01:23:52;;;;;;;6.80;4.60;;;;;;;15.17;69.60;100039.61;129626;1093;114036;-62
2021/08/13 01:26:33;;;;;;;6.98;4.70;;;;;;;15.11;70.02;100040.73;129753;1093;23302;-62
2021/08/13 01:29:25;;;;;;;7.08;4.88;;;;;;;15.07;69.73;100036.88;129744;1093;22561;-62
2021/08/13 01:32:13;;;;;;;7.53;4.68;;;;;;;15.03;69.89;100038.52;129642;1093;113795;-62
2021/08/13 01:34:51;;;;;;;8.48;4.70;;;;;;;14.98;70.15;100042.11;129789;1093;22606;-62
2021/08/13 01:37:20;;;;;;;7.10;4.68;;;;;;;14.96;70.38;100037.98;129654;1093;114029;-62
2021/08/13 01:39:59;;;;;;;7.78;4.70;;;;;;;14.94;70.34;100038.25;129750;1093;22609;-63
2021/08/13 01:42:30;;;;;;;8.00;4.30;;;;;;;14.91;70.53;100040.72;129680;1093;115087;-63
2021/08/13 01:45:02;;;;;;;8.70;4.85;;;;;;;14.90;70.56;100050.86;129777;1092;22616;-63
2021/08/13 01:47:31;;;;;;;9.63;5.30;;;;;;;14.88;70.68;100047.56;129747;1093;22544;-63
2021/08/13 01:50:00;;;;;;;9.98;5.58;;;;;;;14.87;70.46;100056.89;129669;1093;114775;-63
2021/08/13 01:52:51;;;;;;;8.95;5.15;;;;;;;14.83;70.45;100066.79;129806;1092;22553;-63
2021/08/13 01:55:21;;;;;;;7.15;4.83;;;;;;;14.80;70.80;100064.59;129675;1093;114147;-63
2021/08/13 01:57:51;;;;;;;8.58;5.33;;;;;;;14.77;70.67;100068.69;129756;1093;22563;-63
2021/08/13 02:00:21;;;;;;;15.15;6.15;;;;;;;14.74;70.76;100076.63;129675;1093;114517;-63
2021/08/13 02:02:51;;;;;;;12.70;6.03;;;;;;;14.73;71.04;100072.23;129745;1093;22602;-63
2021/08/13 02:05:26;;;;;;;12.20;5.78;;;;;;;14.74;71.00;100071.14;129767;1093;22567;-63
2021/08/13 02:08:16;;;;;;;9.73;5.58;;;;;;;14.75;70.95;100073.63;129691;1093;113832;-63
2021/08/13 02:10:46;;;;;;;10.35;5.65;;;;;;;14.77;71.01;100073.34;129745;1093;22571;-63
2021/08/13 02:13:37;;;;;;;11.15;5.75;;;;;;;14.78;70.99;100084.05;129665;1093;114494;-62
2021/08/13 02:16:32;;;;;;;8.90;5.80;;;;;;;14.78;71.15;100088.72;129762;1092;22532;-63
2021/08/13 02:19:40;;;;;;;17.20;6.08;;;;;;;14.78;70.95;100097.77;129692;1093;115214;-63
2021/08/13 02:22:09;;;;;;;10.93;5.13;;;;;;;14.79;71.21;100096.67;129799;1092;23598;-63
2021/08/13 02:24:38;;;;;;;13.48;6.33;;;;;;;14.79;70.72;100093.11;129626;1093;113911;-63
2021/08/13 02:27:11;;;;;;;11.38;6.08;;;;;;;14.79;71.08;100093.94;129732;1093;22565;-63
2021/08/13 02:29:40;;;;;;;13.73;6.08;;;;;;;14.81;71.36;100090.92;129766;1093;23783;-63
2021/08/13 02:32:16;;;;;;;10.93;5.57;;;;;;;14.82;71.34;100096.14;129677;1093;113888;-63
2021/08/13 02:34:45;;;;;;;9.73;5.90;;;;;;;14.85;71.01;100103.01;129799;1092;23093;-63
2021/08/13 02:37:45;;;;;;;12.85;5.18;;;;;;;14.89;71.16;100100.52;129669;1093;114215;-63
2021/08/13 02:40:15;;;;;;;8.95;5.73;;;;;;;14.90;71.03;100103.00;127604;1093;26052;-62
2021/08/13 02:42:48;;;;;;;16.90;7.60;;;;;;;14.91;71.06;100109.31;129664;1093;114063;-63
2021/08/13 02:45:21;;;;;;;16.18;9.85;;;;;;;14.92;70.85;100094.50;129779;1093;22547;-63
2021/08/13 02:47:58;;;;;;;19.10;13.35;;;;;;;14.92;70.75;100100.81;129755;1092;22545;-62
2021/08/13 02:50:28;;;;;;;20.95;11.43;;;;;;;14.94;70.94;100097.80;129693;1093;114215;-63
2021/08/13 02:53:21;;;;;;;18.55;9.15;;;;;;;14.92;70.85;100098.06;129759;1092;22552;-63
2021/08/13 02:55:58;;;;;;;16.38;8.33;;;;;;;14.91;71.11;100098.33;129612;1093;114027;-63
2021/08/13 02:58:40;;;;;;;12.15;6.88;;;;;;;14.90;70.97;100105.73;129809;1093;22606;-63
2021/08/13 03:01:12;;;;;;;10.18;6.95;;;;;;;14.90;71.02;100104.92;129679;1091;113999;-63
2021/08/13 03:03:42;;;;;;;14.73;7.10;;;;;;;14.88;70.93;100113.41;129787;1092;22563;-63
2021/08/13 03:06:12;;;;;;;10.03;6.50;;;;;;;14.87;71.36;100117.25;129686;1093;114188;-63
2021/08/13 03:08:43;;;;;;;8.60;6.05;;;;;;;14.85;71.53;100112.06;129753;1093;22558;-63
2021/08/13 03:11:12;;;;;;;18.43;6.43;;;;;;;14.88;71.34;100109.84;129773;1093;22561;-63
2021/08/13 03:14:01;;;;;;;16.53;6.75;;;;;;;14.89;71.40;100115.06;129647;1093;115380;-63
2021/08/13 03:16:51;;;;;;;12.10;6.25;;;;;;;14.91;71.49;100118.37;129739;1093;22632;-63
2021/08/13 03:19:22;;;;;;;11.40;5.95;;;;;;;14.94;71.60;100117.83;129693;1093;114000;-63
2021/08/13 03:21:58;;;;;;;10.77;5.93;;;;;;;14.99;71.49;100125.25;129780;1093;22616;-63
2021/08/13 03:24:29;;;;;;;12.63;5.80;;;;;;;15.03;71.51;100127.16;129654;1093;115675;-63
2021/08/13 03:27:01;;;;;;;16.98;5.38;;;;;;;15.09;71.36;100125.26;129724;1095;22669;-63
2021/08/13 03:29:30;;;;;;;10.78;6.10;;;;;;;15.16;71.47;100123.05;129479;1096;22758;-63
2021/08/13 03:31:59;;;;;;;10.75;5.28;;;;;;;15.23;71.14;100129.11;129566;1095;114142;-63
2021/08/13 03:34:28;;;;;;;7.90;5.03;;;;;;;15.32;71.05;100123.88;129751;1093;22607;-63
2021/08/13 03:36:58;;;;;;;7.68;5.40;;;;;;;15.41;70.95;100127.75;129648;1095;114227;-63
2021/08/13 03:39:30;;;;;;;15.58;6.55;;;;;;;15.50;70.93;100126.91;129713;1093;22545;-62
2021/08/13 03:42:00;;;;;;;8.83;4.70;;;;;;;15.59;70.63;100129.95;129760;1093;22557;-62
2021/08/13 03:44:31;;;;;;;12.08;5.30;;;;;;;15.65;70.36;100136.27;129627;1093;114147;-62
2021/08/13 03:47:01;;;;;;;9.33;4.90;;;;;;;15.69;70.33;100131.88;129405;1096;23393;-62
2021/08/13 03:49:30;;;;;;;9.65;5.63;;;;;;;15.73;70.30;100138.44;129617;1093;114113;-62
2021/08/13 03:51:59;;;;;;;16.10;5.98;;;;;;;15.77;70.09;100140.38;129748;1096;22553;-62
2021/08/13 03:54:28;;;;;;;16.50;6.38;;;;;;;15.80;70.25;100141.75;129592;1093;114526;-62
2021/08/13 03:56:59;;;;;;;9.65;6.08;;;;;;;15.84;70.35;100143.67;129625;1095;22536;-62
2021/08/13 03:59:28;;;;;;;9.05;5.65;;;;;;;15.89;70.06;100145.56;129662;1096;22591;-62
2021/08/13 04:01:57;;;;;;;9.98;6.00;;;;;;;15.92;69.96;100142.27;129622;1095;114016;-62
2021/08/13 04:04:26;;;;;;;66.53;9.90;;;;;;;15.95;69.72;100138.15;129708;1096;23413;-63
2021/08/13 04:06:57;;;;;;;22.33;7.00;;;;;;;15.98;69.90;100140.34;129610;1096;114287;-63
2021/08/13 04:09:27;;;;;;;11.10;6.08;;;;;;;16.02;69.68;100149.66;129728;1096;23153;-63
2021/08/13 04:12:03;;;;;;;8.60;4.90;;;;;;;16.05;69.76;100143.61;129724;1096;22652;-63
2021/08/13 04:14:34;;;;;;;13.98;5.98;;;;;;;16.10;69.58;100136.19;129372;1096;113776;-63
2021/08/13 04:17:04;;;;;;;11.15;6.05;;;;;;;16.17;69.60;100139.45;129733;1096;22714;-63
2021/08/13 04:19:53;;;;;;;11.53;5.55;;;;;;;16.23;69.29;100141.09;129626;1095;114265;-63
2021/08/13 04:22:25;;;;;;;9.03;5.45;;;;;;;16.29;69.33;100143.83;129773;1096;22630;-63
2021/08/13 04:24:55;;;;;;;21.48;6.33;;;;;;;16.35;69.23;100149.02;129628;1095;114354;-63
2021/08/13 04:27:24;;;;;;;10.20;5.45;;;;;;;16.40;69.04;100149.01;129732;1093;22558;-63
2021/08/13 04:29:54;;;;;;;5.70;4.83;;;;;;;16.45;68.92;100154.47;129793;1093;22584;-63
2021/08/13 04:32:23;;;;;;;7.93;5.05;;;;;;;16.50;68.50;100159.96;129658;1092;114666;-63
2021/08/13 04:34:52;;;;;;;11.65;5.40;;;;;;;16.54;68.55;100163.80;129834;1092;22992;-64
2021/08/13 04:37:23;;;;;;;10.20;4.28;;;;;;;16.59;68.63;100165.72;129716;1092;114687;-63
2021/08/13 04:39:53;;;;;;;11.33;5.50;;;;;;;16.65;68.34;100159.11;128332;1093;24233;-63
2021/08/13 04:42:23;;;;;;;11.28;5.78;;;;;;;16.72;68.08;100169.81;129718;1092;114331;-62
2021/08/13 04:44:53;;;;;;;13.78;5.08;;;;;;;16.75;68.04;100163.72;129729;1093;22538;-62
2021/08/13 04:47:37;;;;;;;10.00;4.88;;;;;;;16.80;67.98;100167.28;129756;1092;22530;-66
2021/08/13 04:50:24;;;;;;;11.23;5.65;;;;;;;16.86;67.47;100159.83;129680;1093;114677;-65
2021/08/13 04:53:02;;;;;;;8.10;4.58;;;;;;;16.96;67.26;100166.09;129821;1093;22570;-66
2021/08/13 04:55:31;;;;;;;14.10;4.93;;;;;;;17.14;67.27;100167.37;129649;1092;114384;-64
2021/08/13 04:58:02;;;;;;;11.58;4.58;;;;;;;17.38;66.76;100172.14;129746;1093;23856;-67
2021/08/13 05:00:31;;;;;;;7.65;4.40;;;;;;;17.68;66.06;100169.18;129747;1091;114279;-66
2021/08/13 05:03:10;;;;;;;7.30;4.15;;;;;;;18.03;64.89;100167.20;129703;1095;22770;-67
2021/08/13 05:05:49;;;;;;;5.38;3.95;;;;;;;18.39;63.89;100168.45;129730;1096;22573;-67
2021/08/13 05:08:19;;;;;;;6.00;3.40;;;;;;;18.69;62.63;100159.00;129595;1095;113916;-67
2021/08/13 05:10:50;;;;;;;7.35;3.75;;;;;;;18.98;61.49;100167.16;129704;1095;23131;-66
2021/08/13 05:13:21;;;;;;;6.33;3.87;;;;;;;19.19;60.42;100160.20;129384;1096;113817;-67
2021/08/13 05:15:50;;;;;;;6.13;3.73;;;;;;;19.40;60.31;100161.55;129746;1095;23446;-65
2021/08/13 05:18:25;;;;;;;8.20;4.43;;;;;;;19.66;60.09;100174.97;129600;1096;114146;-66
2021/08/13 05:20:55;;;;;;;7.10;3.85;;;;;;;19.92;59.44;100178.11;129619;1096;22625;-65
2021/08/13 05:23:24;;;;;;;13.45;4.38;;;;;;;20.12;58.70;100175.81;129498;1096;23470;-66
2021/08/13 05:25:53;;;;;;;8.93;4.03;;;;;;;20.30;58.36;100163.02;129590;1096;114542;-66
2021/08/13 05:28:22;;;;;;;7.50;4.03;;;;;;;20.52;58.04;100170.63;129677;1096;23141;-66
2021/08/13 05:30:51;;;;;;;5.73;3.60;;;;;;;20.67;57.30;100169.48;128647;1095;114452;-65
2021/08/13 05:33:20;;;;;;;4.88;3.23;;;;;;;20.74;56.71;100167.14;129723;1096;22714;-67
2021/08/13 05:35:49;;;;;;;6.43;4.03;;;;;;;20.85;57.33;100164.95;129687;1094;24354;-66
2021/08/13 05:38:18;;;;;;;7.38;4.25;;;;;;;21.00;56.50;100162.67;129563;1093;113933;-66
2021/08/13 05:40:47;;;;;;;18.35;3.85;;;;;;;21.10;56.08;100169.92;129718;1095;22571;-67
2021/08/13 05:43:16;;;;;;;6.48;4.00;;;;;;;21.17;56.46;100173.10;129584;1095;114383;-66
2021/08/13 05:45:45;;;;;;;9.58;4.70;;;;;;;21.26;56.22;100185.11;129731;1096;22532;-67
2021/08/13 05:48:15;;;;;;;5.90;4.13;;;;;;;21.30;56.11;100177.81;129301;1096;113918;-68
2021/08/13 05:51:58;;;;;;;7.60;4.20;;;;;;;21.40;55.87;100180.33;125568;1092;22950;-69
2021/08/13 05:54:30;;;;;;;6.08;3.80;;;;;;;21.38;55.82;100185.37;125079;1093;114174;-68
2021/08/13 05:57:00;;;;;;;5.65;4.10;;;;;;;21.30;55.95;100183.36;129779;1093;23312;-67
2021/08/13 05:59:29;;;;;;;9.70;3.88;;;;;;;21.17;55.30;100182.23;129788;1093;22562;-66
2021/08/13 06:01:59;;;;;;;8.03;4.33;;;;;;;21.00;56.16;100184.02;129640;1094;113764;-66
2021/08/13 06:04:28;;;;;;;5.10;3.83;;;;;;;20.81;57.10;100182.19;129741;1093;23005;-66
2021/08/13 06:06:57;;;;;;;10.93;3.98;;;;;;;20.75;57.72;100193.70;129665;1093;113972;-67
2021/08/13 06:09:26;;;;;;;11.00;4.63;;;;;;;20.77;57.73;100186.73;129794;1092;22537;-67
2021/08/13 06:11:56;;;;;;;11.10;4.73;;;;;;;20.75;57.73;100197.30;129772;1093;22575;-67
2021/08/13 06:14:26;;;;;;;13.08;5.15;;;;;;;20.76;57.22;100192.58;129674;1093;113788;-66
2021/08/13 06:16:58;;;;;;;8.95;4.05;;;;;;;20.69;57.45;100194.92;129752;1093;22547;-67
2021/08/13 06:19:28;;;;;;;11.45;3.78;;;;;;;20.69;57.91;100190.20;129694;1093;114193;-65
2021/08/13 06:21:57;;;;;;;12.38;4.38;;;;;;;20.74;57.41;100198.42;129773;1093;22976;-67
2021/08/13 06:24:35;;;;;;;12.85;4.80;;;;;;;20.76;57.35;100193.40;129616;1093;113734;-67
2021/08/13 06:27:07;;;;;;;7.40;3.75;;;;;;;20.76;56.69;100198.12;129752;1093;22586;-68
2021/08/13 06:29:38;;;;;;;7.63;4.05;;;;;;;20.71;57.02;100206.52;129764;1093;22628;-67
2021/08/13 06:32:07;;;;;;;5.85;4.23;;;;;;;20.68;56.86;100199.64;129697;1093;114252;-67
2021/08/13 06:34:36;;;;;;;9.18;5.28;;;;;;;20.63;56.82;100196.18;129730;1093;22649;-67
2021/08/13 06:37:05;;;;;;;7.88;5.03;;;;;;;20.61;57.23;100199.25;129686;1093;114079;-66
2021/08/13 06:39:34;;;;;;;7.10;4.58;;;;;;;20.61;57.40;100190.13;128886;1094;22801;-67
2021/08/13 06:42:11;;;;;;;8.70;4.00;;;;;;;20.64;57.51;100197.79;129785;1092;22565;-67
2021/08/13 06:44:50;;;;;;;7.53;3.85;;;;;;;20.68;57.48;100191.34;129657;1093;113604;-67
2021/08/13 06:47:21;;;;;;;8.18;3.95;;;;;;;20.73;57.27;100202.32;129745;1093;22594;-67
2021/08/13 06:49:50;;;;;;;8.53;4.28;;;;;;;20.73;56.47;100202.32;129652;1093;113802;-67
2021/08/13 06:52:18;;;;;;;13.35;4.30;;;;;;;20.70;56.21;100205.70;129777;1092;22562;-67
2021/08/13 06:54:47;;;;;;;11.10;4.55;;;;;;;20.68;56.70;100196.88;129578;1093;114117;-68
2021/08/13 06:57:16;;;;;;;9.18;4.70;;;;;;;20.68;57.57;100205.18;129774;1093;22552;-67
2021/08/13 06:59:45;;;;;;;6.63;4.00;;;;;;;20.69;57.19;100200.47;129746;1093;22565;-67
2021/08/13 07:02:15;;;;;;;6.73;4.03;;;;;;;20.73;57.38;100198.73;129642;1093;114886;-67
2021/08/13 07:04:44;;;;;;;9.68;4.50;;;;;;;20.79;56.91;100191.94;129712;1094;22656;-67
2021/08/13 07:07:14;;;;;;;8.10;4.30;;;;;;;20.86;56.21;100199.84;129723;1093;114348;-68
2021/08/13 07:09:46;;;;;;;4.80;3.53;;;;;;;20.88;56.26;100200.36;129734;1094;22654;-67
2021/08/13 07:12:16;;;;;;;7.80;3.93;;;;;;;20.91;56.43;100188.66;129725;1093;22600;-67
2021/08/13 07:14:45;;;;;;;4.73;3.58;;;;;;;20.97;56.48;100190.99;129685;1093;113816;-68
2021/08/13 07:17:14;;;;;;;11.20;3.88;;;;;;;21.01;56.52;100194.80;129720;1096;22584;-67
2021/08/13 07:19:43;;;;;;;5.23;3.40;;;;;;;21.02;55.24;100187.30;129664;1093;116718;-67
2021/08/13 07:22:12;;;;;;;5.70;3.70;;;;;;;21.01;55.94;100193.97;129743;1095;22562;-66
2021/08/13 07:24:41;;;;;;;9.75;3.78;;;;;;;21.03;56.60;100192.53;129606;1096;113902;-66
2021/08/13 07:27:10;;;;;;;6.13;3.98;;;;;;;21.12;56.24;100198.14;129728;1096;22552;-67
2021/08/13 07:29:39;;;;;;;5.48;3.53;;;;;;;21.17;55.16;100201.63;129774;1096;23091;-68
2021/08/13 07:32:09;;;;;;;6.85;3.40;;;;;;;21.20;54.86;100199.41;129602;1096;113788;-67
2021/08/13 07:34:38;;;;;;;5.08;3.40;;;;;;;21.18;54.26;100206.05;129731;1093;22677;-67
2021/08/13 07:37:07;;;;;;;7.00;3.55;;;;;;;21.17;54.20;100207.17;129640;1096;114251;-67
2021/08/13 07:39:39;;;;;;;6.85;3.95;;;;;;;21.20;54.52;100208.55;128696;1095;22815;-66
2021/08/13 07:42:09;;;;;;;4.20;3.15;;;;;;;21.20;54.51;100203.00;125198;1096;24189;-67
2021/08/13 07:44:39;;;;;;;4.15;2.68;;;;;;;21.22;53.45;100206.25;129662;1096;113675;-67
2021/08/13 07:47:13;;;;;;;3.58;3.20;;;;;;;21.18;53.34;100202.45;129750;1093;22541;-67
2021/08/13 07:49:43;;;;;;;4.33;2.85;;;;;;;21.16;53.03;100208.30;129614;1096;113805;-67
2021/08/13 07:52:13;;;;;;;4.83;3.45;;;;;;;21.17;53.60;100200.81;129773;1096;22731;-66
2021/08/13 07:54:42;;;;;;;4.50;3.15;;;;;;;21.21;53.39;100193.53;129665;1096;113885;-67
2021/08/13 07:57:12;;;;;;;4.20;3.35;;;;;;;21.28;53.46;100205.02;129750;1096;23400;-68
2021/08/13 07:59:41;;;;;;;9.55;3.58;;;;;;;21.36;53.76;100192.34;129710;1095;22573;-67
2021/08/13 08:02:11;;;;;;;6.08;3.53;;;;;;;21.45;54.19;100196.86;129621;1096;113820;-68
2021/08/13 08:04:40;;;;;;;4.45;3.23;;;;;;;21.52;52.87;100186.13;129776;1095;22644;-67
2021/08/13 08:07:09;;;;;;;4.08;2.80;;;;;;;21.52;52.18;100186.13;129679;1093;114325;-67
2021/08/13 08:09:38;;;;;;;4.65;2.73;;;;;;;21.50;52.33;100182.84;129780;1096;22537;-68
2021/08/13 08:12:07;;;;;;;10.10;2.75;;;;;;;21.52;52.26;100175.04;129816;1095;23354;-67
2021/08/13 08:14:36;;;;;;;5.78;2.85;;;;;;;21.58;52.56;100180.47;129618;1096;113790;-67
2021/08/13 08:17:05;;;;;;;7.30;3.20;;;;;;;21.60;52.43;100183.75;129804;1097;22577;-68
2021/08/13 08:19:34;;;;;;;9.63;3.78;;;;;;;21.66;52.31;100188.02;129642;1095;113612;-68
2021/08/13 08:22:03;;;;;;;4.35;3.28;;;;;;;21.73;52.78;100188.41;129729;1095;23209;-67
2021/08/13 08:24:32;;;;;;;5.10;3.20;;;;;;;21.77;52.24;100186.66;129671;1094;114036;-67
2021/08/13 08:27:01;;;;;;;3.63;3.28;;;;;;;21.80;52.04;100183.22;129705;1096;22665;-68
2021/08/13 08:29:31;;;;;;;4.33;3.08;;;;;;;21.86;51.93;100188.34;129723;1093;23149;-68
2021/08/13 08:32:00;;;;;;;6.85;3.73;;;;;;;21.92;51.21;100186.27;129647;1096;113836;-67
2021/08/13 08:34:29;;;;;;;3.60;2.68;;;;;;;21.98;51.30;100184.16;129758;1096;23103;-66
2021/08/13 08:37:10;;;;;;;5.03;3.55;;;;;;;21.99;50.60;100191.34;129633;1096;113779;-68
2021/08/13 08:39:39;;;;;;;6.08;2.88;;;;;;;21.98;50.89;100193.30;129753;1094;22537;-67
2021/08/13 08:42:15;;;;;;;4.85;3.20;;;;;;;22.00;51.17;100195.80;129721;1097;22569;-68
2021/08/13 08:44:44;;;;;;;5.93;3.45;;;;;;;22.06;51.31;100192.58;129658;1095;113961;-67
2021/08/13 08:47:13;;;;;;;4.35;2.90;;;;;;;22.11;50.83;100191.61;129735;1092;22602;-67
2021/08/13 08:49:43;;;;;;;6.73;3.28;;;;;;;22.15;50.58;100184.29;129603;1095;114449;-67
2021/08/13 08:52:12;;;;;;;5.68;3.38;;;;;;;22.18;50.86;100192.80;129794;1096;22607;-67
2021/08/13 08:54:41;;;;;;;4.65;3.23;;;;;;;22.21;50.54;100192.17;129668;1095;113791;-67
2021/08/13 08:57:10;;;;;;;4.90;3.10;;;;;;;22.24;50.96;100187.91;129765;1093;22569;-67
2021/08/13 08:59:42;;;;;;;7.00;3.38;;;;;;;22.29;49.99;100198.08;129770;1093;22544;-68
2021/08/13 09:02:12;;;;;;;9.05;3.03;;;;;;;22.32;49.73;100194.66;129662;1094;114395;-68
2021/08/13 09:04:42;;;;;;;4.95;3.33;;;;;;;22.32;50.61;100189.93;129353;1096;23702;-67
2021/08/13 09:07:21;;;;;;;4.00;2.80;;;;;;;22.36;50.90;100192.89;129650;1095;113748;-68
2021/08/13 09:09:50;;;;;;;6.33;3.05;;;;;;;22.41;49.82;100190.78;129778;1093;22647;-67
2021/08/13 09:12:23;;;;;;;2.85;2.38;;;;;;;22.46;49.75;100187.05;129740;1093;22575;-67
2021/08/13 09:14:53;;;;;;;4.75;2.73;;;;;;;22.53;49.55;100181.83;129657;1096;113747;-67
2021/08/13 09:17:29;;;;;;;4.05;3.08;;;;;;;22.62;48.73;100190.21;129731;1093;22616;-68
2021/08/13 09:19:58;;;;;;;5.25;2.98;;;;;;;22.68;48.40;100186.95;129627;1093;114715;-68
2021/08/13 09:22:27;;;;;;;7.48;3.83;;;;;;;22.73;48.01;100181.25;129765;1094;22534;-67
2021/08/13 09:24:56;;;;;;;5.70;3.00;;;;;;;22.75;48.08;100173.42;129659;1093;114062;-67
2021/08/13 09:27:47;;;;;;;11.40;3.63;;;;;;;22.77;47.95;100173.13;129518;1095;22527;-68
2021/08/13 09:30:50;;;;;;;6.03;2.93;;;;;;;22.78;48.08;100178.36;129679;1096;115392;-68
2021/08/13 09:33:19;;;;;;;8.13;2.70;;;;;;;22.80;48.37;100169.68;129755;1095;24439;-70
2021/08/13 09:35:53;;;;;;;12.10;3.20;;;;;;;22.84;48.13;100179.83;129701;1096;22582;-68
2021/08/13 09:38:22;;;;;;;6.78;2.40;;;;;;;22.89;47.24;100176.09;129574;1095;114194;-67
2021/08/13 09:40:51;;;;;;;2.80;2.50;;;;;;;22.95;46.94;100185.08;126413;1095;22829;-67
2021/08/13 09:43:20;;;;;;;3.28;2.68;;;;;;;22.99;46.67;100178.55;129595;1096;113936;-68
2021/08/13 09:46:04;;;;;;;2.90;2.45;;;;;;;23.04;47.45;100169.25;129786;1095;22591;-67
2021/08/13 09:48:33;;;;;;;3.68;2.50;;;;;;;23.09;47.67;100174.63;129649;1094;114995;-68
2021/08/13 09:51:03;;;;;;;12.60;3.10;;;;;;;23.18;47.43;100184.64;129716;1093;23343;-67
2021/08/13 09:53:32;;;;;;;6.85;2.73;;;;;;;23.26;46.82;100194.11;129821;1093;23412;-68
2021/08/13 09:56:01;;;;;;;4.50;2.65;;;;;;;23.30;45.93;100192.33;129693;1095;114316;-68
2021/08/13 09:58:32;;;;;;;4.83;2.93;;;;;;;23.28;46.30;100180.70;129494;1096;22577;-67
2021/08/13 10:01:01;;;;;;;7.00;2.90;;;;;;;23.30;46.80;100186.77;129682;1094;114464;-67
2021/08/13 10:03:30;;;;;;;5.18;2.88;;;;;;;23.34;46.65;100182.19;129735;1093;23046;-67
2021/08/13 10:06:03;;;;;;;8.98;3.38;;;;;;;23.38;45.54;100180.38;129860;1093;22588;-67
2021/08/13 10:08:52;;;;;;;7.15;2.65;;;;;;;23.41;46.19;100178.91;129644;1093;114600;-67
2021/08/13 10:11:21;;;;;;;3.68;2.70;;;;;;;23.45;45.67;100177.93;129755;1094;22570;-68
2021/08/13 10:14:13;;;;;;;2.88;2.58;;;;;;;23.45;44.79;100180.72;129679;1095;115129;-68
2021/08/13 10:16:42;;;;;;;3.90;2.70;;;;;;;23.42;44.46;100180.55;129542;1096;23407;-67
2021/08/13 10:19:14;;;;;;;4.28;2.70;;;;;;;23.39;45.16;100167.28;129638;1096;116025;-67
2021/08/13 10:21:43;;;;;;;5.50;2.93;;;;;;;23.43;45.14;100182.18;129721;1096;23503;-68
2021/08/13 10:24:13;;;;;;;7.30;2.93;;;;;;;23.49;44.82;100167.80;129672;1095;23369;-68
2021/08/13 10:26:43;;;;;;;5.73;2.93;;;;;;;23.56;44.16;100168.13;129318;1096;113989;-68
2021/08/13 10:29:12;;;;;;;3.48;2.75;;;;;;;23.63;44.11;100186.30;129616;1096;22929;-67
2021/08/13 10:31:43;;;;;;;6.55;2.58;;;;;;;23.63;43.78;100175.18;129497;1095;114980;-68
2021/08/13 10:34:12;;;;;;;5.85;3.40;;;;;;;23.63;44.44;100178.78;129675;1096;22633;-68
2021/08/13 10:36:41;;;;;;;5.10;2.70;;;;;;;23.68;44.17;100173.02;129564;1096;114342;-67
2021/08/13 10:39:10;;;;;;;3.95;2.45;;;;;;;23.74;43.70;100168.11;129512;1095;22576;-68
2021/08/13 10:41:39;;;;;;;3.90;2.80;;;;;;;23.81;43.97;100165.63;129602;1093;23404;-67
2021/08/13 10:44:09;;;;;;;4.45;3.00;;;;;;;23.86;43.87;100168.25;129271;1095;113854;-68
2021/08/13 10:46:38;;;;;;;4.45;3.15;;;;;;;23.92;44.25;100164.16;129648;1096;22564;-68
2021/08/13 10:49:11;;;;;;;5.13;2.80;;;;;;;23.94;44.19;100161.87;129637;1092;114082;-70
2021/08/13 10:51:42;;;;;;;4.43;2.83;;;;;;;23.95;44.02;100163.47;125975;1096;22797;-67
2021/08/13 10:54:15;;;;;;;3.55;2.88;;;;;;;23.98;44.73;100162.81;129686;1092;23425;-68
2021/08/13 10:56:48;;;;;;;8.25;3.15;;;;;;;24.04;45.10;100163.47;129591;1093;113810;-68
2021/08/13 10:59:53;;;;;;;3.98;2.80;;;;;;;24.11;43.85;100163.75;129727;1094;22566;-68
2021/08/13 11:02:23;;;;;;;3.98;2.65;;;;;;;24.15;43.20;100165.55;129113;1096;114236;-68
2021/08/13 11:05:03;;;;;;;6.43;3.03;;;;;;;24.18;42.63;100170.46;129278;1096;22583;-68
2021/08/13 11:07:58;;;;;;;5.90;3.10;;;;;;;24.21;42.81;100167.02;129132;1095;116184;-66
2021/08/13 11:10:53;;;;;;;3.63;2.70;;;;;;;24.24;42.72;100169.14;129269;1096;22568;-66
2021/08/13 11:13:22;;;;;;;6.88;3.23;;;;;;;24.22;42.02;100174.22;129137;1095;114356;-64
2021/08/13 11:15:58;;;;;;;4.93;2.60;;;;;;;24.18;41.88;100178.81;129268;1097;22615;-67
2021/08/13 11:18:38;;;;;;;5.45;2.78;;;;;;;24.18;41.62;100167.67;129295;1096;22624;-67
2021/08/13 11:21:15;;;;;;;3.50;2.90;;;;;;;24.21;41.70;100164.23;129139;1096;116853;-67
2021/08/13 11:24:18;;;;;;;3.85;2.90;;;;;;;24.23;42.05;100161.15;129268;1096;22597;-68
2021/08/13 11:27:01;;;;;;;6.85;3.48;;;;;;;24.24;42.36;100160.78;129180;1096;113923;-68
2021/08/13 11:29:33;;;;;;;5.53;3.13;;;;;;;24.33;42.20;100157.98;129282;1097;22558;-70
2021/08/13 11:32:14;;;;;;;6.48;3.33;;;;;;;24.39;42.20;100162.20;129163;1096;114044;-69
2021/08/13 11:34:51;;;;;;;4.53;3.38;;;;;;;24.44;42.28;100164.81;129244;1097;22603;-71
2021/08/13 11:37:31;;;;;;;4.73;3.10;;;;;;;24.44;41.95;100156.45;129364;1095;114170;-66
2021/08/13 11:40:03;;;;;;;6.45;3.30;;;;;;;24.43;41.40;100159.57;127992;1093;26301;-69